Startpagina
METAR-TAF:

METAR-TAF

Vliegvelden :

Marshall Islands International Airport

Majuro, Marshalleilanden

breedte: 07-04N, lengte: 171-17E, hoogte: 2 m

Actueel weer

Dit bericht is 53 minuten geleden gemaakt, om 22:59 UTC
Wind 14 kt uit het noordoosten
Temperatuur 30°C
Vochtigheid 75%
Druk 1010 hPa
Zicht: 24.1 km
Weinig wolken op 1500 ft
Verspreide wolken op 5000 ft
Gebroken wolken op 12000 ft
Geheel bewolkt op 30000 ft

METAR: PKMJ 232259Z 04014KT 15SM FEW015 SCT050 BKN120 OVC300 30/25 A2983 RMK LAST

Tijdstip: 11:52 (23:52 UTC)

Verwachting

Dit bericht is 32 minuten geleden gemaakt, om 23:20 UTC
Verwachting geldig van 24 om 00 UTC tot 24 om 24 UTC
Wind 15 kt uit het oosten
Zicht: 10 km
Weinig wolken op 1500 ft
Verspreide wolken op 5000 ft

TAF: PKMJ 232320Z 2400/2424 08015KT P6SM FEW015 SCT050

Waarnemingen en weersverwachtingen van meer dan 4000 vliegvelden (METAR en TAF).

De beschikbare stations zijn de gele en rode punten op de kaart.

Ga met uw muis naar het station om de naam te zien.

Klik dan om waarnemingen en weersverwachtingen te zien.

kaart wijzigen: klik op de groene knoppen met een zwart kruis om in te zoomen, op de groene knop met een streepje om uit te zoomen of op de groene pijlen voor aangrenzende kaarten.


METAR-TAF: